createdAt,value
2017-03-11T00:00:30.757Z,100
2017-03-11T00:01:32.658Z,100
2017-03-11T00:02:35.367Z,100
2017-03-11T00:03:37.652Z,100
2017-03-11T00:04:39.560Z,100
2017-03-11T00:05:41.422Z,100
2017-03-11T00:06:43.317Z,100
2017-03-11T00:07:45.591Z,100
2017-03-11T00:08:47.904Z,100
2017-03-11T00:09:49.750Z,100
2017-03-11T00:10:52.048Z,100
2017-03-11T00:11:54.353Z,100
2017-03-11T00:12:56.235Z,100
2017-03-11T00:13:58.100Z,100
2017-03-11T00:15:00.394Z,100
2017-03-11T00:16:02.260Z,100
2017-03-11T00:17:04.554Z,100
2017-03-11T00:18:06.423Z,100
2017-03-11T00:19:08.715Z,100
2017-03-11T00:20:10.610Z,100
2017-03-11T00:21:12.492Z,100
2017-03-11T00:22:14.366Z,100
2017-03-11T00:23:16.694Z,100
2017-03-11T00:24:19.008Z,100
2017-03-11T00:25:20.916Z,100
2017-03-11T00:26:23.607Z,100
2017-03-11T00:27:25.907Z,100
2017-03-11T00:28:28.187Z,100
2017-03-11T00:29:30.491Z,100
2017-03-11T00:30:32.809Z,100
2017-03-11T00:31:35.498Z,100
2017-03-11T00:32:37.365Z,100
2017-03-11T00:33:39.246Z,100
2017-03-11T00:34:41.944Z,100
2017-03-11T00:35:43.820Z,100
2017-03-11T00:36:46.557Z,100
2017-03-11T00:37:48.413Z,100
2017-03-11T00:38:50.279Z,100
2017-03-11T00:39:52.167Z,100
2017-03-11T00:40:54.045Z,100
2017-03-11T00:41:56.352Z,100
2017-03-11T00:42:58.232Z,100
2017-03-11T00:44:00.089Z,100
2017-03-11T00:45:02.405Z,100
2017-03-11T00:46:05.103Z,100
2017-03-11T00:47:06.971Z,100
2017-03-11T00:48:08.836Z,100
2017-03-11T00:49:10.740Z,100
2017-03-11T00:50:12.624Z,100
2017-03-11T00:51:14.911Z,100
2017-03-11T00:52:16.779Z,100
2017-03-11T00:53:18.643Z,100
2017-03-11T00:54:20.932Z,100
2017-03-11T00:55:22.813Z,100
2017-03-11T00:56:25.107Z,100
2017-03-11T00:57:27.820Z,100
2017-03-11T00:58:29.673Z,100
2017-03-11T00:59:31.540Z,100
2017-03-11T01:00:33.422Z,100
2017-03-11T01:01:35.725Z,100
2017-03-11T01:02:38.011Z,100
2017-03-11T01:03:39.882Z,100
2017-03-11T01:04:41.784Z,100
2017-03-11T01:05:43.638Z,100
2017-03-11T01:06:45.500Z,100
2017-03-11T01:07:47.780Z,100
2017-03-11T01:08:49.652Z,100
2017-03-11T01:09:51.948Z,100
2017-03-11T01:10:53.823Z,100
2017-03-11T01:11:55.681Z,100
2017-03-11T01:12:57.983Z,100
2017-03-11T01:13:59.829Z,100
2017-03-11T01:15:01.710Z,100
2017-03-11T01:16:03.984Z,99.9
2017-03-11T01:17:05.868Z,100
2017-03-11T01:18:07.743Z,100
2017-03-11T01:19:09.600Z,100
2017-03-11T01:20:11.475Z,100
2017-03-11T01:21:13.765Z,99.9
2017-03-11T01:22:15.616Z,100
2017-03-11T01:23:17.479Z,100
2017-03-11T01:24:19.350Z,100
2017-03-11T01:25:21.236Z,100
2017-03-11T01:26:23.102Z,100
2017-03-11T01:27:24.951Z,100
2017-03-11T01:28:26.816Z,100
2017-03-11T01:29:28.681Z,100
2017-03-11T01:30:30.586Z,100
2017-03-11T01:31:32.444Z,100
2017-03-11T01:32:34.339Z,100
2017-03-11T01:33:37.087Z,100
2017-03-11T01:34:38.955Z,100
2017-03-11T01:35:41.238Z,100
2017-03-11T01:36:43.549Z,100
2017-03-11T01:37:45.847Z,100
2017-03-11T01:38:48.127Z,100
2017-03-11T01:39:50.008Z,100
2017-03-11T01:40:52.269Z,100
2017-03-11T01:41:54.180Z,100
2017-03-11T01:42:56.452Z,99.8
2017-03-11T01:43:58.759Z,99.8
2017-03-11T01:45:00.631Z,99.8
2017-03-11T01:46:02.917Z,100
2017-03-11T01:47:04.787Z,99.8
2017-03-11T01:48:06.643Z,99.8
2017-03-11T01:49:08.508Z,99.6
2017-03-11T01:50:10.820Z,99.7
2017-03-11T01:51:12.698Z,99.7
2017-03-11T01:52:14.580Z,99.8
2017-03-11T01:53:16.861Z,99.8
2017-03-11T01:54:18.765Z,99.8
2017-03-11T01:55:20.631Z,99.7
2017-03-11T01:56:22.505Z,99.8
2017-03-11T01:57:24.366Z,99.8
2017-03-11T01:58:26.243Z,99.8
2017-03-11T01:59:28.123Z,99.8
2017-03-11T02:00:29.980Z,99.7
2017-03-11T02:01:31.859Z,99.7
2017-03-11T02:02:33.731Z,99.6
2017-03-11T02:03:35.616Z,99.7
2017-03-11T02:04:37.467Z,99.8
2017-03-11T02:05:39.377Z,99.8
2017-03-11T02:06:41.646Z,99.7
2017-03-11T02:07:43.942Z,99.6
2017-03-11T02:08:45.793Z,99.7
2017-03-11T02:09:47.673Z,99.7
2017-03-11T02:10:49.533Z,99.6
2017-03-11T02:11:51.810Z,99.6
2017-03-11T02:12:53.694Z,99.7
2017-03-11T02:13:55.544Z,99.7
2017-03-11T02:14:57.446Z,99.8
2017-03-11T02:15:59.305Z,99.8
2017-03-11T02:17:01.174Z,99.9
2017-03-11T02:18:03.045Z,99.9
2017-03-11T02:19:04.941Z,99.9
2017-03-11T02:20:06.813Z,99.8
2017-03-11T02:21:08.675Z,99.7
2017-03-11T02:22:10.978Z,99.7
2017-03-11T02:23:12.858Z,99.5
2017-03-11T02:24:14.716Z,99.5
2017-03-11T02:25:17.006Z,99.5
2017-03-11T02:26:19.285Z,99.4
2017-03-11T02:27:21.181Z,99.3
2017-03-11T02:28:23.472Z,99.2
2017-03-11T02:29:26.171Z,99.1
2017-03-11T02:30:28.892Z,99.2
2017-03-11T02:31:31.600Z,99.3
2017-03-11T02:32:33.881Z,99.2
2017-03-11T02:33:35.757Z,99.3
2017-03-11T02:34:38.089Z,99.3
2017-03-11T02:35:40.787Z,99.4
2017-03-11T02:36:42.664Z,99.3
2017-03-11T02:37:44.552Z,99.1
2017-03-11T02:38:46.407Z,99
2017-03-11T02:39:48.292Z,99
2017-03-11T02:40:50.163Z,98.9
2017-03-11T02:41:52.454Z,98.9
2017-03-11T02:42:54.325Z,98.7
2017-03-11T02:43:56.188Z,98.7
2017-03-11T02:44:58.068Z,98.8
2017-03-11T02:45:59.948Z,98.9
2017-03-11T02:47:02.259Z,98.9
2017-03-11T02:48:04.540Z,99
2017-03-11T02:49:07.258Z,99
2017-03-11T02:50:09.114Z,99
2017-03-11T02:51:10.986Z,98.9
2017-03-11T02:52:12.861Z,99
2017-03-11T02:53:15.562Z,99.1
2017-03-11T02:54:17.490Z,99.2
2017-03-11T02:55:19.321Z,99.2
2017-03-11T02:56:21.610Z,99.1
2017-03-11T02:57:23.479Z,99.2
2017-03-11T02:58:25.775Z,99.4
2017-03-11T02:59:28.071Z,99.5
2017-03-11T03:00:29.954Z,99.5
2017-03-11T03:01:31.828Z,99.3
2017-03-11T03:02:34.124Z,99.5
2017-03-11T03:03:35.982Z,99.8
2017-03-11T03:04:38.285Z,100
2017-03-11T03:05:40.150Z,99.8
2017-03-11T03:06:42.463Z,99.6
2017-03-11T03:07:44.312Z,99.6
2017-03-11T03:08:46.178Z,99.5
2017-03-11T03:09:48.051Z,99.5
2017-03-11T03:10:49.929Z,99.4
2017-03-11T03:11:51.798Z,99.2
2017-03-11T03:12:54.498Z,99.1
2017-03-11T03:13:57.214Z,99.2
2017-03-11T03:14:59.094Z,99.3
2017-03-11T03:16:00.969Z,99.2
2017-03-11T03:17:03.255Z,99.1
2017-03-11T03:18:05.112Z,99.2
2017-03-11T03:19:07.408Z,99.2
2017-03-11T03:20:09.732Z,99.2
2017-03-11T03:21:11.607Z,99.3
2017-03-11T03:22:13.486Z,99.4
2017-03-11T03:23:15.358Z,99.4
2017-03-11T03:24:17.239Z,99.2
2017-03-11T03:25:19.546Z,99.1
2017-03-11T03:26:21.428Z,99.1
2017-03-11T03:27:23.720Z,99.2
2017-03-11T03:28:25.617Z,99.1
2017-03-11T03:29:27.478Z,99.2
2017-03-11T03:30:29.349Z,99.3
2017-03-11T03:31:31.231Z,99.2
2017-03-11T03:32:33.521Z,99.1
2017-03-11T03:33:35.403Z,99.1
2017-03-11T03:34:37.269Z,99.1
2017-03-11T03:35:39.132Z,99
2017-03-11T03:36:41.425Z,99.1
2017-03-11T03:37:43.317Z,99.1
2017-03-11T03:38:45.179Z,99.2
2017-03-11T03:39:47.034Z,99.2
2017-03-11T03:40:49.329Z,99.1
2017-03-11T03:41:51.206Z,99
2017-03-11T03:42:53.071Z,99.1
2017-03-11T03:43:55.357Z,99.1
2017-03-11T03:44:57.300Z,99
2017-03-11T03:45:59.203Z,99.1
2017-03-11T03:47:01.093Z,99.1
2017-03-11T03:48:02.967Z,99
2017-03-11T03:49:05.248Z,99.1
2017-03-11T03:50:07.537Z,99.2
2017-03-11T03:51:09.433Z,99.2
2017-03-11T03:52:11.312Z,99.2
2017-03-11T03:53:13.186Z,99
2017-03-11T03:54:15.077Z,99.1
2017-03-11T03:55:16.939Z,99.1
2017-03-11T03:56:18.776Z,99.1
2017-03-11T03:57:21.073Z,99.1
2017-03-11T03:58:22.960Z,99.2
2017-03-11T03:59:24.842Z,99.2
2017-03-11T04:00:26.713Z,99.2
2017-03-11T04:01:28.575Z,99.2
2017-03-11T04:02:30.458Z,99.3
2017-03-11T04:03:32.342Z,99.3
2017-03-11T04:04:34.226Z,99.4
2017-03-11T04:05:36.099Z,99.4
2017-03-11T04:06:38.001Z,99.3
2017-03-11T04:07:39.883Z,99.3
2017-03-11T04:08:41.746Z,99.3
2017-03-11T04:09:43.611Z,99.2
2017-03-11T04:10:45.468Z,99.1
2017-03-11T04:11:47.780Z,99.2
2017-03-11T04:12:49.663Z,99.2
2017-03-11T04:13:51.533Z,99.3
2017-03-11T04:14:53.389Z,99.4
2017-03-11T04:15:55.266Z,99.4
2017-03-11T04:16:57.135Z,99.5
2017-03-11T04:17:59.443Z,99.6
2017-03-11T04:19:01.721Z,99.6
2017-03-11T04:20:04.024Z,99.5
2017-03-11T04:21:05.907Z,99.3
2017-03-11T04:22:08.189Z,99.3
2017-03-11T04:23:10.064Z,99.5
2017-03-11T04:24:12.767Z,99.6
2017-03-11T04:25:14.654Z,99.5
2017-03-11T04:26:16.943Z,99.5
2017-03-11T04:27:18.818Z,99.4
2017-03-11T04:28:20.691Z,99.5
2017-03-11T04:29:22.599Z,99.6
2017-03-11T04:30:24.878Z,99.6
2017-03-11T04:31:27.178Z,99.5
2017-03-11T04:32:29.044Z,99.6
2017-03-11T04:33:30.920Z,99.6
2017-03-11T04:34:32.764Z,99.5
2017-03-11T04:35:34.646Z,99.5
2017-03-11T04:36:36.510Z,99.3
2017-03-11T04:37:38.394Z,99.3
2017-03-11T04:38:40.245Z,99.4
2017-03-11T04:39:42.116Z,99.6
2017-03-11T04:40:44.814Z,99.8
2017-03-11T04:41:46.688Z,99.7
2017-03-11T04:42:48.549Z,99.7
2017-03-11T04:43:50.846Z,99.6
2017-03-11T04:44:53.134Z,99.6
2017-03-11T04:45:55.447Z,99.6
2017-03-11T04:46:57.758Z,99.5
2017-03-11T04:47:59.606Z,99.4
2017-03-11T04:49:01.500Z,99.4
2017-03-11T04:50:03.801Z,99.5
2017-03-11T04:51:05.706Z,99.6
2017-03-11T04:52:07.578Z,99.6
2017-03-11T04:53:09.876Z,99.6
2017-03-11T04:54:11.748Z,99.6
2017-03-11T04:55:13.629Z,99.6
2017-03-11T04:56:15.926Z,99.6
2017-03-11T04:57:17.819Z,99.7
2017-03-11T04:58:20.529Z,100
2017-03-11T04:59:22.828Z,100
2017-03-11T05:00:24.712Z,99.8
2017-03-11T05:01:26.983Z,99.8
2017-03-11T05:02:28.852Z,100
2017-03-11T05:03:31.138Z,100
2017-03-11T05:04:33.017Z,100
2017-03-11T05:05:35.362Z,100
2017-03-11T05:06:37.238Z,99.9
2017-03-11T05:07:39.101Z,99.8
2017-03-11T05:08:40.986Z,99.8
2017-03-11T05:09:42.859Z,99.7
2017-03-11T05:10:45.563Z,99.7
2017-03-11T05:11:48.287Z,99.7
2017-03-11T05:12:50.151Z,99.7
2017-03-11T05:13:52.433Z,99.8
2017-03-11T05:14:54.305Z,99.9
2017-03-11T05:15:56.599Z,99.8
2017-03-11T05:16:58.901Z,99.8
2017-03-11T05:18:00.752Z,99.9
2017-03-11T05:19:02.648Z,100
2017-03-11T05:20:04.511Z,99.9
2017-03-11T05:21:06.377Z,99.9
2017-03-11T05:22:08.278Z,100
2017-03-11T05:23:10.142Z,100
2017-03-11T05:24:11.983Z,99.8
2017-03-11T05:25:13.853Z,99.8
2017-03-11T05:26:16.159Z,99.9
2017-03-11T05:27:18.034Z,99.8
2017-03-11T05:28:19.887Z,99.7
2017-03-11T05:29:21.745Z,100
2017-03-11T05:30:24.454Z,100
2017-03-11T05:31:26.741Z,100
2017-03-11T05:32:29.032Z,100
2017-03-11T05:33:30.908Z,100
2017-03-11T05:34:32.768Z,100
2017-03-11T05:35:34.639Z,100
2017-03-11T05:36:36.511Z,100
2017-03-11T05:37:38.775Z,99.9
2017-03-11T05:38:41.075Z,99.9
2017-03-11T05:39:42.948Z,99.9
2017-03-11T05:40:44.833Z,100
2017-03-11T05:41:46.726Z,100
2017-03-11T05:42:48.632Z,100
2017-03-11T05:43:50.521Z,100
2017-03-11T05:44:52.379Z,100
2017-03-11T05:45:54.246Z,99.9
2017-03-11T05:46:56.127Z,99.9
2017-03-11T05:47:58.003Z,99.9
2017-03-11T05:49:00.284Z,100
2017-03-11T05:50:02.583Z,99.8
2017-03-11T05:51:04.913Z,99.6
2017-03-11T05:52:06.781Z,99.7
2017-03-11T05:53:09.093Z,99.7
2017-03-11T05:54:11.390Z,99.8
2017-03-11T05:55:13.700Z,99.8
2017-03-11T05:56:15.578Z,99.8
2017-03-11T05:57:17.438Z,99.7
2017-03-11T05:58:19.334Z,99.8
2017-03-11T05:59:21.672Z,99.9
2017-03-11T06:00:24.094Z,99.9
2017-03-11T06:01:26.173Z,100
2017-03-11T06:02:28.028Z,99.9
2017-03-11T06:03:57.131Z,99.7
2017-03-11T06:04:59.614Z,99.8
2017-03-11T06:06:01.571Z,99.8
2017-03-11T06:07:03.539Z,99.8
2017-03-11T06:08:05.520Z,100
2017-03-11T06:09:07.957Z,100
2017-03-11T06:10:09.843Z,99.8
2017-03-11T06:11:11.973Z,99.7
2017-03-11T06:12:13.867Z,99.7
2017-03-11T06:13:16.193Z,99.7
2017-03-11T06:14:18.081Z,99.7
2017-03-11T06:15:20.383Z,99.4
2017-03-11T06:16:22.275Z,99.3
2017-03-11T06:17:24.139Z,99.3
2017-03-11T06:18:26.018Z,99.2
2017-03-11T06:19:27.901Z,99.2
2017-03-11T06:20:29.778Z,99.2
2017-03-11T06:21:31.653Z,99.2
2017-03-11T06:22:33.533Z,99.3
2017-03-11T06:23:35.823Z,99.2
2017-03-11T06:24:37.729Z,99.4
2017-03-11T06:25:39.683Z,99.7
2017-03-11T06:26:41.957Z,99.7
2017-03-11T06:27:43.822Z,99.5
2017-03-11T06:28:45.773Z,99.6
2017-03-11T06:29:47.747Z,99.9
2017-03-11T06:30:50.128Z,100
2017-03-11T06:31:52.132Z,99.9
2017-03-11T06:32:54.002Z,99.7
2017-03-11T06:33:56.521Z,99.3
2017-03-11T06:34:58.943Z,99.4
2017-03-11T06:36:00.843Z,99.2
2017-03-11T06:37:02.747Z,99.1
2017-03-11T06:38:04.630Z,99.1
2017-03-11T06:39:06.502Z,99.1
2017-03-11T06:40:08.400Z,98.9
2017-03-11T06:41:10.720Z,98.8
2017-03-11T06:42:12.602Z,98.9
2017-03-11T06:43:14.495Z,99
2017-03-11T06:44:16.368Z,99.3
2017-03-11T06:45:18.266Z,99.3
2017-03-11T06:46:20.147Z,99.7
2017-03-11T06:47:22.056Z,99.8
2017-03-11T06:48:24.752Z,99.5
2017-03-11T06:49:27.051Z,99.2
2017-03-11T06:50:29.783Z,99.1
2017-03-11T06:51:31.665Z,99.5
2017-03-11T06:52:33.541Z,99.7
2017-03-11T06:53:35.411Z,99.7
2017-03-11T06:54:37.692Z,99.4
2017-03-11T06:55:39.579Z,99.3
2017-03-11T06:56:41.876Z,99.7
2017-03-11T06:57:44.174Z,99.7
2017-03-11T06:58:46.047Z,99.3
2017-03-11T06:59:48.437Z,99.3
2017-03-11T07:00:50.365Z,99.4
2017-03-11T07:01:52.352Z,99.5
2017-03-11T07:02:54.833Z,99.7
2017-03-11T07:03:57.280Z,99.8
2017-03-11T07:04:59.353Z,99.7
2017-03-11T07:06:01.813Z,99.7
2017-03-11T07:07:04.257Z,99.8
2017-03-11T07:08:06.673Z,99.9
2017-03-11T07:09:08.733Z,99.7
2017-03-11T07:10:10.652Z,99
2017-03-11T07:11:12.639Z,99
2017-03-11T07:12:14.547Z,99
2017-03-11T07:13:16.456Z,98.5
2017-03-11T07:14:18.362Z,98.4
2017-03-11T07:15:20.270Z,98.7
2017-03-11T07:16:22.455Z,98.9
2017-03-11T07:17:24.333Z,99.1
2017-03-11T07:18:26.357Z,99.3
2017-03-11T07:19:28.281Z,99.1
2017-03-11T07:20:30.391Z,99
2017-03-11T07:21:32.722Z,98.9
2017-03-11T07:22:34.617Z,98.9
2017-03-11T07:23:37.343Z,99
2017-03-11T07:24:39.256Z,98.9
2017-03-11T07:25:41.513Z,98.8
2017-03-11T07:26:43.408Z,98.6
2017-03-11T07:27:45.313Z,98.8
2017-03-11T07:28:47.727Z,98.9
2017-03-11T07:29:49.630Z,99
2017-03-11T07:30:51.960Z,99.2
2017-03-11T07:31:53.838Z,99.4
2017-03-11T07:32:56.190Z,99.3
2017-03-11T07:33:58.141Z,99.1
2017-03-11T07:35:00.042Z,98.7
2017-03-11T07:36:02.350Z,98.7
2017-03-11T07:37:04.465Z,99.1
2017-03-11T07:38:06.407Z,99.3
2017-03-11T07:39:08.529Z,98.8
2017-03-11T07:40:10.830Z,98.6
2017-03-11T07:41:12.867Z,98.5
2017-03-11T07:42:14.769Z,98.3
2017-03-11T07:43:16.653Z,98.2
2017-03-11T07:44:18.536Z,98.1
2017-03-11T07:45:20.454Z,97.9
2017-03-11T07:46:22.376Z,97.8
2017-03-11T07:47:24.601Z,97.7
2017-03-11T07:48:26.468Z,97.7
2017-03-11T07:49:28.393Z,97.5
2017-03-11T07:50:30.363Z,97.7
2017-03-11T07:51:32.695Z,97.5
2017-03-11T07:52:34.984Z,97.5
2017-03-11T07:53:36.910Z,97.8
2017-03-11T07:54:38.824Z,98.3
2017-03-11T07:55:40.717Z,98.5
2017-03-11T07:56:42.619Z,98.7
2017-03-11T07:57:44.626Z,98.7
2017-03-11T07:58:47.114Z,98.6
2017-03-11T07:59:49.465Z,98.9
2017-03-11T08:00:51.772Z,98.4
2017-03-11T08:01:54.136Z,98.5
2017-03-11T08:02:56.466Z,98.2
2017-03-11T08:03:59.186Z,97.9
2017-03-11T08:05:01.104Z,97.9
2017-03-11T08:06:03.436Z,97.5
2017-03-11T08:07:05.385Z,97.3
2017-03-11T08:08:07.307Z,97.3
2017-03-11T08:09:09.224Z,97.4
2017-03-11T08:10:11.195Z,97.2
2017-03-11T08:11:13.224Z,97.1
2017-03-11T08:12:15.121Z,96.9
2017-03-11T08:13:17.487Z,97.1
2017-03-11T08:14:19.355Z,97
2017-03-11T08:15:21.509Z,96.9
2017-03-11T08:16:23.428Z,96.9
2017-03-11T08:17:25.295Z,96.7
2017-03-11T08:18:27.174Z,96.9
2017-03-11T08:19:29.085Z,97.2
2017-03-11T08:20:31.702Z,97.3
2017-03-11T08:21:33.980Z,97.3
2017-03-11T08:22:35.908Z,97.1
2017-03-11T08:23:38.697Z,97.2
2017-03-11T08:24:40.653Z,97.4
2017-03-11T08:25:42.563Z,97.7
2017-03-11T08:26:44.897Z,97.8
2017-03-11T08:27:46.833Z,97.5
2017-03-11T08:28:49.995Z,97.4
2017-03-11T08:29:52.330Z,96.6
2017-03-11T08:30:54.248Z,96.4
2017-03-11T08:31:56.143Z,96.4
2017-03-11T08:32:58.476Z,96.5
2017-03-11T08:34:00.786Z,96.1
2017-03-11T08:35:03.229Z,95.7
2017-03-11T08:36:05.180Z,95.9
2017-03-11T08:37:07.526Z,96.6
2017-03-11T08:38:09.450Z,96.4
2017-03-11T08:39:12.197Z,96.8
2017-03-11T08:40:14.137Z,96.8
2017-03-11T08:41:16.032Z,95.6
2017-03-11T08:42:18.375Z,95.1
2017-03-11T08:43:20.399Z,95.1
2017-03-11T08:44:22.291Z,95.6
2017-03-11T08:45:24.159Z,95.8
2017-03-11T08:46:26.230Z,96.2
2017-03-11T08:47:28.170Z,95.9
2017-03-11T08:48:30.492Z,96.1
2017-03-11T08:49:32.380Z,95.8
2017-03-11T08:50:34.285Z,96.4
2017-03-11T08:51:36.145Z,96.2
2017-03-11T08:52:38.046Z,95.7
2017-03-11T08:53:39.932Z,96.1
2017-03-11T08:54:42.240Z,96.4
2017-03-11T08:55:44.535Z,96.4
2017-03-11T08:56:46.859Z,96.3
2017-03-11T08:57:49.661Z,96.2
2017-03-11T08:58:51.616Z,96.3
2017-03-11T08:59:53.480Z,96.5
2017-03-11T09:00:55.413Z,96.5
2017-03-11T09:01:57.316Z,96.6
2017-03-11T09:02:59.637Z,96.4
2017-03-11T09:04:01.532Z,96.4
2017-03-11T09:05:03.438Z,95.4
2017-03-11T09:06:05.340Z,94.9
2017-03-11T09:07:07.262Z,95.3
2017-03-11T09:08:09.171Z,95.7
2017-03-11T09:09:11.038Z,95.5
2017-03-11T09:10:13.344Z,95.4
2017-03-11T09:11:15.671Z,94.9
2017-03-11T09:12:17.583Z,95.1
2017-03-11T09:13:19.462Z,95.3
2017-03-11T09:14:21.366Z,94.9
2017-03-11T09:15:23.284Z,94.6
2017-03-11T09:16:25.604Z,94.6
2017-03-11T09:17:27.932Z,94.5
2017-03-11T09:18:29.844Z,94.3
2017-03-11T09:19:31.743Z,94.3
2017-03-11T09:20:34.059Z,94.5
2017-03-11T09:21:36.348Z,95.3
2017-03-11T09:22:38.237Z,95.4
2017-03-11T09:23:40.137Z,94.8
2017-03-11T09:24:42.436Z,95
2017-03-11T09:25:44.753Z,94.3
2017-03-11T09:26:46.641Z,93.7
2017-03-11T09:27:48.525Z,93.3
2017-03-11T09:28:50.840Z,93.3
2017-03-11T09:29:52.746Z,93.6
2017-03-11T09:30:55.092Z,93.5
2017-03-11T09:31:57.449Z,94
2017-03-11T09:32:59.320Z,93.4
2017-03-11T09:34:01.220Z,92.3
2017-03-11T09:35:03.521Z,92.4
2017-03-11T09:36:05.822Z,92.6
2017-03-11T09:37:07.695Z,92.7
2017-03-11T09:38:09.617Z,93.1
2017-03-11T09:39:11.935Z,93.1
2017-03-11T09:40:13.793Z,92.9
2017-03-11T09:41:15.667Z,91.8
2017-03-11T09:42:17.527Z,91.7
2017-03-11T09:43:19.405Z,92.1
2017-03-11T09:44:21.303Z,92.8
2017-03-11T09:45:23.223Z,93
2017-03-11T09:46:25.104Z,92.9
2017-03-11T09:47:26.987Z,92.5
2017-03-11T09:48:28.846Z,92.4
2017-03-11T09:49:31.615Z,92.5
2017-03-11T09:50:33.907Z,92.4
2017-03-11T09:51:36.205Z,93
2017-03-11T09:52:38.500Z,93
2017-03-11T09:53:40.818Z,92.5
2017-03-11T09:54:43.132Z,91.9
2017-03-11T09:55:45.016Z,91.8
2017-03-11T09:56:46.903Z,91.6
2017-03-11T09:57:49.217Z,91.8
2017-03-11T09:58:51.115Z,91.6
2017-03-11T09:59:52.988Z,91.7
2017-03-11T10:00:55.312Z,91.5
2017-03-11T10:01:58.044Z,91.6
2017-03-11T10:02:59.973Z,91.3
2017-03-11T10:04:02.298Z,91.1
2017-03-11T10:05:04.632Z,90
2017-03-11T10:06:06.510Z,89.8
2017-03-11T10:07:08.391Z,90.4
2017-03-11T10:08:10.253Z,90.1
2017-03-11T10:09:12.159Z,89.6
2017-03-11T10:10:14.046Z,89.4
2017-03-11T10:11:15.932Z,89.4
2017-03-11T10:12:17.865Z,89.7
2017-03-11T10:13:19.771Z,89.5
2017-03-11T10:14:21.672Z,89.1
2017-03-11T10:15:23.540Z,89.3
2017-03-11T10:16:25.419Z,89.2
2017-03-11T10:17:27.711Z,89.6
2017-03-11T10:18:29.619Z,89.8
2017-03-11T10:19:31.517Z,89.8
2017-03-11T10:20:33.812Z,90
2017-03-11T10:21:36.570Z,89.7
2017-03-11T10:22:38.448Z,90
2017-03-11T10:23:40.323Z,89.5
2017-03-11T10:24:42.189Z,89.1
2017-03-11T10:25:44.076Z,89.2
2017-03-11T10:26:45.991Z,88.7
2017-03-11T10:27:47.877Z,88.2
2017-03-11T10:28:50.199Z,88.9
2017-03-11T10:29:52.095Z,88.3
2017-03-11T10:30:53.985Z,87.7
2017-03-11T10:31:55.875Z,87.5
2017-03-11T10:32:58.183Z,87.4
2017-03-11T10:34:00.038Z,86.9
2017-03-11T10:35:01.931Z,86.2
2017-03-11T10:36:04.261Z,86
2017-03-11T10:37:06.155Z,85.7
2017-03-11T10:38:08.457Z,84.6
2017-03-11T10:39:10.333Z,84.1
2017-03-11T10:40:12.206Z,83.3
2017-03-11T10:41:14.084Z,83.1
2017-03-11T10:42:16.410Z,83.4
2017-03-11T10:43:18.323Z,83.7
2017-03-11T10:44:20.243Z,82.5
2017-03-11T10:45:22.132Z,83
2017-03-11T10:46:24.048Z,82.7
2017-03-11T10:47:25.932Z,82.5
2017-03-11T10:48:27.811Z,83.5
2017-03-11T10:49:30.121Z,84
2017-03-11T10:50:32.841Z,83.7
2017-03-11T10:51:34.710Z,83.2
2017-03-11T10:52:36.596Z,82.8
2017-03-11T10:53:39.319Z,82.8
2017-03-11T10:54:41.208Z,81.6
2017-03-11T10:55:43.094Z,82.8
2017-03-11T10:56:45.815Z,82.1
2017-03-11T10:57:48.125Z,81.4
2017-03-11T10:58:50.004Z,82.2
2017-03-11T10:59:51.880Z,82.2
2017-03-11T11:00:54.201Z,81.6
2017-03-11T11:01:56.505Z,81.5
2017-03-11T11:02:58.435Z,80.7
2017-03-11T11:04:00.728Z,80.3
2017-03-11T11:05:02.641Z,81.4
2017-03-11T11:06:04.515Z,80
2017-03-11T11:07:06.406Z,79.3
2017-03-11T11:08:08.702Z,80.7
2017-03-11T11:09:10.584Z,80.6
2017-03-11T11:10:13.305Z,80.7
2017-03-11T11:11:15.611Z,81.8
2017-03-11T11:12:17.461Z,82.1
2017-03-11T11:13:19.350Z,81.4
2017-03-11T11:14:21.653Z,81.5
2017-03-11T11:15:23.576Z,80.6
2017-03-11T11:16:25.455Z,80.4
2017-03-11T11:17:27.359Z,79.6
2017-03-11T11:18:29.243Z,78.6
2017-03-11T11:19:31.129Z,77.4
2017-03-11T11:20:32.991Z,76.8
2017-03-11T11:21:34.857Z,76.9
2017-03-11T11:22:36.738Z,77.6
2017-03-11T11:23:38.655Z,78.2
2017-03-11T11:24:40.547Z,78.5
2017-03-11T11:25:42.867Z,78.7
2017-03-11T11:26:45.168Z,76.9
2017-03-11T11:27:47.079Z,75.8
2017-03-11T11:28:49.391Z,77.2
2017-03-11T11:29:51.287Z,75.1
2017-03-11T11:30:53.595Z,73.8
2017-03-11T11:31:55.524Z,74.2
2017-03-11T11:32:57.385Z,74.5
2017-03-11T11:33:59.274Z,74.9
2017-03-11T11:35:01.156Z,75.7
2017-03-11T11:36:03.550Z,75.6
2017-03-11T11:37:05.443Z,76.2
2017-03-11T11:38:07.302Z,75.7
2017-03-11T11:39:09.203Z,76
2017-03-11T11:40:11.086Z,74.7
2017-03-11T11:41:12.967Z,74
2017-03-11T11:42:15.306Z,72.9
2017-03-11T11:43:17.182Z,71.9
2017-03-11T11:44:19.501Z,72.5
2017-03-11T11:45:21.376Z,72.2
2017-03-11T11:46:23.262Z,70.9
2017-03-11T11:47:25.593Z,71
2017-03-11T11:48:27.508Z,71.7
2017-03-11T11:49:29.384Z,73.7
2017-03-11T11:50:31.701Z,73.8
2017-03-11T11:51:33.580Z,74.9
2017-03-11T11:52:35.873Z,74.8
2017-03-11T11:53:37.779Z,75
2017-03-11T11:54:39.673Z,74.4
2017-03-11T11:55:41.569Z,75
2017-03-11T11:56:43.455Z,74.9
2017-03-11T11:57:45.329Z,73.8
2017-03-11T11:58:47.631Z,74.1
2017-03-11T11:59:49.503Z,73.8
2017-03-11T12:00:51.409Z,73.6
2017-03-11T12:01:53.722Z,74.1
2017-03-11T12:02:55.601Z,73.6
2017-03-11T12:03:57.474Z,73.7
2017-03-11T12:04:59.353Z,72.9
2017-03-11T12:06:01.673Z,72.2
2017-03-11T12:07:04.003Z,71.8
2017-03-11T12:08:05.912Z,72.2
2017-03-11T12:09:07.816Z,72.7
2017-03-11T12:10:09.703Z,72.2
2017-03-11T12:11:11.592Z,69.8
2017-03-11T12:12:13.890Z,70.7
2017-03-11T12:13:15.777Z,69
2017-03-11T12:14:17.656Z,68.1
2017-03-11T12:15:19.983Z,67.4
2017-03-11T12:16:21.883Z,65.7
2017-03-11T12:17:23.763Z,65.8
2017-03-11T12:18:25.650Z,66.7
2017-03-11T12:19:27.547Z,66.8
2017-03-11T12:20:29.431Z,64.2
2017-03-11T12:21:31.313Z,64.5
2017-03-11T12:22:33.199Z,62.2
2017-03-11T12:23:35.095Z,62.5
2017-03-11T12:24:37.865Z,62.1
2017-03-11T12:25:39.800Z,61.8
2017-03-11T12:26:41.671Z,61.4
2017-03-11T12:27:44.003Z,62.6
2017-03-11T12:28:45.898Z,63.1
2017-03-11T12:29:48.205Z,61.9
2017-03-11T12:30:50.534Z,61.7
2017-03-11T12:31:53.270Z,60.6
2017-03-11T12:32:55.576Z,61.4
2017-03-11T12:33:57.486Z,60.5
2017-03-11T12:34:59.334Z,60
2017-03-11T12:36:01.234Z,60.4
2017-03-11T12:37:03.128Z,62.1
2017-03-11T12:38:05.038Z,63.3
2017-03-11T12:39:06.931Z,64.3
2017-03-11T12:40:09.281Z,63.6
2017-03-11T12:41:11.161Z,63.1
2017-03-11T12:42:13.042Z,62.5
2017-03-11T12:43:14.990Z,63.1
2017-03-11T12:44:16.874Z,60.7
2017-03-11T12:45:18.762Z,62.1
2017-03-11T12:46:21.511Z,62.5
2017-03-11T12:47:23.386Z,62.4
2017-03-11T12:48:25.278Z,62.3
2017-03-11T12:49:27.153Z,62.6
2017-03-11T12:50:29.048Z,61.8
2017-03-11T12:51:31.797Z,61.8
2017-03-11T12:52:33.715Z,62.6
2017-03-11T12:53:35.621Z,61.8
2017-03-11T12:54:38.352Z,60.3
2017-03-11T12:55:40.283Z,61
2017-03-11T12:56:42.160Z,61.9
2017-03-11T12:57:44.467Z,60.8
2017-03-11T12:58:46.357Z,60.6
2017-03-11T12:59:48.685Z,61.2
2017-03-11T13:00:50.573Z,62.2
2017-03-11T13:01:53.311Z,62.3
2017-03-11T13:02:55.627Z,63.4
2017-03-11T13:03:57.524Z,61.7
2017-03-11T13:04:59.409Z,61
2017-03-11T13:06:01.735Z,62.5
2017-03-11T13:07:03.636Z,61.8
2017-03-11T13:08:05.520Z,63.7
2017-03-11T13:09:07.413Z,62.1
2017-03-11T13:10:09.312Z,60.2
2017-03-11T13:11:11.201Z,63.3
2017-03-11T13:12:13.079Z,64.2
2017-03-11T13:13:14.972Z,64.3
2017-03-11T13:14:16.854Z,62.4
2017-03-11T13:15:18.756Z,61.9
2017-03-11T13:16:20.654Z,62.2
2017-03-11T13:17:22.977Z,63.2
2017-03-11T13:18:24.878Z,64.3
2017-03-11T13:19:26.762Z,62.1
2017-03-11T13:20:29.184Z,61.7
2017-03-11T13:21:31.107Z,61
2017-03-11T13:22:33.483Z,60.9
2017-03-11T13:23:35.409Z,61.4
2017-03-11T13:24:37.431Z,62.2
2017-03-11T13:25:39.352Z,61.3
2017-03-11T13:26:41.255Z,63
2017-03-11T13:27:43.147Z,62.5
2017-03-11T13:28:45.454Z,63.3
2017-03-11T13:29:47.917Z,62
2017-03-11T13:30:49.867Z,62.4
2017-03-11T13:31:51.823Z,61.7
2017-03-11T13:32:53.844Z,62.1
2017-03-11T13:33:56.269Z,61.2
2017-03-11T13:34:58.177Z,61.6
2017-03-11T13:36:00.627Z,61.3
2017-03-11T13:37:02.513Z,61.1
2017-03-11T13:38:04.391Z,63.5
2017-03-11T13:39:06.639Z,62.2
2017-03-11T13:40:08.570Z,62.2
2017-03-11T13:41:10.481Z,63.5
2017-03-11T13:42:12.507Z,63.9
2017-03-11T13:43:14.846Z,62.9
2017-03-11T13:44:17.163Z,61.1
2017-03-11T13:45:19.278Z,62
2017-03-11T13:46:21.176Z,60.7
2017-03-11T13:47:23.096Z,62.6
2017-03-11T13:48:24.999Z,61.1
2017-03-11T13:49:26.931Z,60.8
2017-03-11T13:50:28.858Z,61
2017-03-11T13:51:31.081Z,61.3
2017-03-11T13:52:33.521Z,61.3
2017-03-11T13:53:35.980Z,61.1